sensor_id;sensor_type;location;lat;lon;timestamp;P1;durP1;ratioP1;P2;durP2;ratioP2
5458;SDS011;2752;49.992;8.422;2022-11-15T00:00:04;15.27;;;9.40;;
5458;SDS011;2752;49.992;8.422;2022-11-15T00:02:31;17.70;;;10.00;;
5458;SDS011;2752;49.992;8.422;2022-11-15T00:04:58;18.27;;;9.60;;
5458;SDS011;2752;49.992;8.422;2022-11-15T00:07:25;25.47;;;9.73;;
5458;SDS011;2752;49.992;8.422;2022-11-15T00:09:51;20.60;;;9.80;;
5458;SDS011;2752;49.992;8.422;2022-11-15T00:12:18;23.00;;;10.20;;
5458;SDS011;2752;49.992;8.422;2022-11-15T00:14:46;21.20;;;9.57;;
5458;SDS011;2752;49.992;8.422;2022-11-15T00:17:13;20.17;;;9.50;;
5458;SDS011;2752;49.992;8.422;2022-11-15T00:19:39;17.47;;;9.70;;
5458;SDS011;2752;49.992;8.422;2022-11-15T00:22:06;20.30;;;10.97;;
5458;SDS011;2752;49.992;8.422;2022-11-15T00:24:33;19.13;;;10.20;;
5458;SDS011;2752;49.992;8.422;2022-11-15T00:26:59;26.10;;;11.40;;
5458;SDS011;2752;49.992;8.422;2022-11-15T00:29:26;20.27;;;10.43;;
5458;SDS011;2752;49.992;8.422;2022-11-15T00:31:54;20.27;;;9.43;;
5458;SDS011;2752;49.992;8.422;2022-11-15T00:34:21;20.90;;;10.60;;
5458;SDS011;2752;49.992;8.422;2022-11-15T00:36:47;22.60;;;8.70;;
5458;SDS011;2752;49.992;8.422;2022-11-15T00:39:14;26.53;;;10.20;;
5458;SDS011;2752;49.992;8.422;2022-11-15T00:41:41;23.00;;;11.97;;
5458;SDS011;2752;49.992;8.422;2022-11-15T00:44:07;18.00;;;9.80;;
5458;SDS011;2752;49.992;8.422;2022-11-15T00:46:34;21.53;;;10.80;;
5458;SDS011;2752;49.992;8.422;2022-11-15T00:49:02;16.97;;;9.20;;
5458;SDS011;2752;49.992;8.422;2022-11-15T00:51:28;18.73;;;10.30;;
5458;SDS011;2752;49.992;8.422;2022-11-15T00:53:55;18.60;;;10.37;;
5458;SDS011;2752;49.992;8.422;2022-11-15T00:56:22;22.47;;;10.33;;
5458;SDS011;2752;49.992;8.422;2022-11-15T00:58:48;17.47;;;9.87;;
5458;SDS011;2752;49.992;8.422;2022-11-15T01:01:15;24.90;;;10.10;;
5458;SDS011;2752;49.992;8.422;2022-11-15T01:03:42;17.80;;;9.13;;
5458;SDS011;2752;49.992;8.422;2022-11-15T01:06:10;20.93;;;10.07;;
5458;SDS011;2752;49.992;8.422;2022-11-15T01:08:37;15.90;;;9.33;;
5458;SDS011;2752;49.992;8.422;2022-11-15T01:11:05;18.50;;;9.67;;
5458;SDS011;2752;49.992;8.422;2022-11-15T01:13:34;27.10;;;9.70;;
5458;SDS011;2752;49.992;8.422;2022-11-15T01:16:05;21.13;;;10.90;;
5458;SDS011;2752;49.992;8.422;2022-11-15T01:18:33;27.37;;;9.93;;
5458;SDS011;2752;49.992;8.422;2022-11-15T01:21:04;20.50;;;10.30;;
5458;SDS011;2752;49.992;8.422;2022-11-15T01:23:33;20.50;;;10.13;;
5458;SDS011;2752;49.992;8.422;2022-11-15T01:26:00;22.30;;;9.70;;
5458;SDS011;2752;49.992;8.422;2022-11-15T01:28:29;17.67;;;9.70;;
5458;SDS011;2752;49.992;8.422;2022-11-15T01:30:57;22.63;;;11.00;;
5458;SDS011;2752;49.992;8.422;2022-11-15T01:33:24;20.70;;;10.83;;
5458;SDS011;2752;49.992;8.422;2022-11-15T01:35:51;23.25;;;11.20;;
5458;SDS011;2752;49.992;8.422;2022-11-15T01:38:17;19.97;;;10.60;;
5458;SDS011;2752;49.992;8.422;2022-11-15T01:40:45;20.17;;;11.57;;
5458;SDS011;2752;49.992;8.422;2022-11-15T01:43:20;20.10;;;11.73;;
5458;SDS011;2752;49.992;8.422;2022-11-15T01:45:48;19.80;;;11.20;;
5458;SDS011;2752;49.992;8.422;2022-11-15T01:48:18;20.53;;;11.13;;
5458;SDS011;2752;49.992;8.422;2022-11-15T01:50:45;24.80;;;10.43;;
5458;SDS011;2752;49.992;8.422;2022-11-15T01:53:12;21.43;;;10.50;;
5458;SDS011;2752;49.992;8.422;2022-11-15T01:55:38;22.37;;;10.87;;
5458;SDS011;2752;49.992;8.422;2022-11-15T01:58:07;23.57;;;10.03;;
5458;SDS011;2752;49.992;8.422;2022-11-15T02:00:34;24.23;;;10.90;;
5458;SDS011;2752;49.992;8.422;2022-11-15T02:03:01;21.90;;;11.43;;
5458;SDS011;2752;49.992;8.422;2022-11-15T02:05:28;18.10;;;10.30;;
5458;SDS011;2752;49.992;8.422;2022-11-15T02:07:57;18.97;;;10.77;;
5458;SDS011;2752;49.992;8.422;2022-11-15T02:10:24;22.87;;;9.80;;
5458;SDS011;2752;49.992;8.422;2022-11-15T02:12:51;19.47;;;10.37;;
5458;SDS011;2752;49.992;8.422;2022-11-15T02:15:22;23.43;;;11.10;;
5458;SDS011;2752;49.992;8.422;2022-11-15T02:17:56;15.67;;;8.87;;
5458;SDS011;2752;49.992;8.422;2022-11-15T02:20:42;15.80;;;10.10;;
5458;SDS011;2752;49.992;8.422;2022-11-15T02:23:35;21.33;;;10.53;;
5458;SDS011;2752;49.992;8.422;2022-11-15T02:26:38;21.13;;;10.43;;
5458;SDS011;2752;49.992;8.422;2022-11-15T02:29:25;20.73;;;10.73;;
5458;SDS011;2752;49.992;8.422;2022-11-15T02:32:03;17.20;;;9.27;;
5458;SDS011;2752;49.992;8.422;2022-11-15T02:34:35;18.30;;;8.50;;
5458;SDS011;2752;49.992;8.422;2022-11-15T02:37:10;23.70;;;9.77;;
5458;SDS011;2752;49.992;8.422;2022-11-15T02:39:44;16.90;;;9.50;;
5458;SDS011;2752;49.992;8.422;2022-11-15T02:42:17;16.97;;;9.33;;
5458;SDS011;2752;49.992;8.422;2022-11-15T02:45:06;17.80;;;9.83;;
5458;SDS011;2752;49.992;8.422;2022-11-15T02:47:37;21.77;;;9.83;;
5458;SDS011;2752;49.992;8.422;2022-11-15T02:50:09;16.00;;;9.50;;
5458;SDS011;2752;49.992;8.422;2022-11-15T02:52:38;23.37;;;10.50;;
5458;SDS011;2752;49.992;8.422;2022-11-15T02:55:05;18.67;;;10.37;;
5458;SDS011;2752;49.992;8.422;2022-11-15T02:57:51;21.40;;;10.57;;
5458;SDS011;2752;49.992;8.422;2022-11-15T03:00:20;21.23;;;10.83;;
5458;SDS011;2752;49.992;8.422;2022-11-15T03:05:44;20.73;;;9.83;;
5458;SDS011;2752;49.992;8.422;2022-11-15T03:08:19;18.37;;;10.70;;
5458;SDS011;2752;49.992;8.422;2022-11-15T03:10:54;21.00;;;10.60;;
5458;SDS011;2752;49.992;8.422;2022-11-15T03:13:30;19.30;;;9.27;;
5458;SDS011;2752;49.992;8.422;2022-11-15T03:16:04;26.60;;;10.50;;
5458;SDS011;2752;49.992;8.422;2022-11-15T03:18:42;20.37;;;10.33;;
5458;SDS011;2752;49.992;8.422;2022-11-15T03:21:13;19.53;;;9.23;;
5458;SDS011;2752;49.992;8.422;2022-11-15T03:23:42;20.10;;;10.47;;
5458;SDS011;2752;49.992;8.422;2022-11-15T03:26:11;24.67;;;10.80;;
5458;SDS011;2752;49.992;8.422;2022-11-15T03:28:40;17.70;;;9.40;;
5458;SDS011;2752;49.992;8.422;2022-11-15T03:31:14;18.83;;;11.10;;
5458;SDS011;2752;49.992;8.422;2022-11-15T03:34:20;19.87;;;10.37;;
5458;SDS011;2752;49.992;8.422;2022-11-15T03:36:52;30.23;;;11.13;;
5458;SDS011;2752;49.992;8.422;2022-11-15T03:39:19;19.30;;;10.00;;
5458;SDS011;2752;49.992;8.422;2022-11-15T03:41:48;21.25;;;10.15;;
5458;SDS011;2752;49.992;8.422;2022-11-15T03:44:26;17.60;;;10.00;;
5458;SDS011;2752;49.992;8.422;2022-11-15T03:47:02;21.17;;;9.37;;
5458;SDS011;2752;49.992;8.422;2022-11-15T03:49:34;18.60;;;9.53;;
5458;SDS011;2752;49.992;8.422;2022-11-15T03:52:04;16.73;;;9.77;;
5458;SDS011;2752;49.992;8.422;2022-11-15T03:54:31;22.63;;;9.77;;
5458;SDS011;2752;49.992;8.422;2022-11-15T03:56:58;17.23;;;9.60;;
5458;SDS011;2752;49.992;8.422;2022-11-15T03:59:25;20.67;;;10.90;;
5458;SDS011;2752;49.992;8.422;2022-11-15T04:01:51;23.13;;;9.97;;
5458;SDS011;2752;49.992;8.422;2022-11-15T04:04:18;22.90;;;9.97;;
5458;SDS011;2752;49.992;8.422;2022-11-15T04:06:47;19.60;;;9.90;;
5458;SDS011;2752;49.992;8.422;2022-11-15T04:09:14;21.30;;;9.37;;
5458;SDS011;2752;49.992;8.422;2022-11-15T04:11:41;21.07;;;10.20;;
5458;SDS011;2752;49.992;8.422;2022-11-15T04:14:07;16.80;;;8.93;;
5458;SDS011;2752;49.992;8.422;2022-11-15T04:16:34;21.87;;;9.97;;
5458;SDS011;2752;49.992;8.422;2022-11-15T04:19:00;15.30;;;8.47;;
5458;SDS011;2752;49.992;8.422;2022-11-15T04:21:45;15.73;;;8.97;;
5458;SDS011;2752;49.992;8.422;2022-11-15T04:24:30;17.63;;;9.70;;
5458;SDS011;2752;49.992;8.422;2022-11-15T04:26:57;17.70;;;9.80;;
5458;SDS011;2752;49.992;8.422;2022-11-15T04:29:23;20.17;;;9.67;;
5458;SDS011;2752;49.992;8.422;2022-11-15T04:32:02;20.87;;;9.87;;
5458;SDS011;2752;49.992;8.422;2022-11-15T04:34:30;23.50;;;10.10;;
5458;SDS011;2752;49.992;8.422;2022-11-15T04:36:56;21.90;;;9.83;;
5458;SDS011;2752;49.992;8.422;2022-11-15T04:39:41;15.53;;;9.00;;
5458;SDS011;2752;49.992;8.422;2022-11-15T04:42:09;22.73;;;10.03;;
5458;SDS011;2752;49.992;8.422;2022-11-15T04:44:36;15.60;;;9.03;;
5458;SDS011;2752;49.992;8.422;2022-11-15T04:47:03;14.80;;;8.83;;
5458;SDS011;2752;49.992;8.422;2022-11-15T04:49:30;21.17;;;8.53;;
5458;SDS011;2752;49.992;8.422;2022-11-15T04:51:56;21.20;;;9.90;;
5458;SDS011;2752;49.992;8.422;2022-11-15T04:54:23;18.00;;;9.33;;
5458;SDS011;2752;49.992;8.422;2022-11-15T04:56:51;20.43;;;9.97;;
5458;SDS011;2752;49.992;8.422;2022-11-15T04:59:18;18.37;;;9.67;;
5458;SDS011;2752;49.992;8.422;2022-11-15T05:01:44;14.10;;;8.20;;
5458;SDS011;2752;49.992;8.422;2022-11-15T05:04:11;23.17;;;9.20;;
5458;SDS011;2752;49.992;8.422;2022-11-15T05:06:49;24.40;;;9.33;;
5458;SDS011;2752;49.992;8.422;2022-11-15T05:09:17;22.80;;;9.10;;
5458;SDS011;2752;49.992;8.422;2022-11-15T05:11:44;20.37;;;9.23;;
5458;SDS011;2752;49.992;8.422;2022-11-15T05:14:13;16.80;;;9.10;;
5458;SDS011;2752;49.992;8.422;2022-11-15T05:16:40;15.30;;;9.70;;
5458;SDS011;2752;49.992;8.422;2022-11-15T05:19:07;14.87;;;7.83;;
5458;SDS011;2752;49.992;8.422;2022-11-15T05:21:33;15.37;;;8.70;;
5458;SDS011;2752;49.992;8.422;2022-11-15T05:24:00;17.97;;;8.80;;
5458;SDS011;2752;49.992;8.422;2022-11-15T05:26:28;19.60;;;8.10;;
5458;SDS011;2752;49.992;8.422;2022-11-15T05:28:55;15.90;;;7.80;;
5458;SDS011;2752;49.992;8.422;2022-11-15T05:31:24;15.37;;;8.27;;
5458;SDS011;2752;49.992;8.422;2022-11-15T05:33:52;19.57;;;8.40;;
5458;SDS011;2752;49.992;8.422;2022-11-15T05:36:21;14.30;;;8.47;;
5458;SDS011;2752;49.992;8.422;2022-11-15T05:38:55;18.90;;;7.93;;
5458;SDS011;2752;49.992;8.422;2022-11-15T05:41:22;21.10;;;9.10;;
5458;SDS011;2752;49.992;8.422;2022-11-15T05:43:53;15.47;;;8.30;;
5458;SDS011;2752;49.992;8.422;2022-11-15T05:46:20;17.30;;;7.57;;
5458;SDS011;2752;49.992;8.422;2022-11-15T05:48:48;16.53;;;8.50;;
5458;SDS011;2752;49.992;8.422;2022-11-15T05:51:17;17.57;;;7.93;;
5458;SDS011;2752;49.992;8.422;2022-11-15T05:53:47;17.90;;;7.63;;
5458;SDS011;2752;49.992;8.422;2022-11-15T05:56:15;15.67;;;7.30;;
5458;SDS011;2752;49.992;8.422;2022-11-15T05:58:42;15.33;;;8.50;;
5458;SDS011;2752;49.992;8.422;2022-11-15T06:01:09;14.67;;;6.97;;
5458;SDS011;2752;49.992;8.422;2022-11-15T06:03:36;18.73;;;7.03;;
5458;SDS011;2752;49.992;8.422;2022-11-15T06:06:04;13.00;;;6.77;;
5458;SDS011;2752;49.992;8.422;2022-11-15T06:08:31;14.73;;;7.53;;
5458;SDS011;2752;49.992;8.422;2022-11-15T06:11:02;15.53;;;7.60;;
5458;SDS011;2752;49.992;8.422;2022-11-15T06:13:30;14.83;;;6.20;;
5458;SDS011;2752;49.992;8.422;2022-11-15T06:15:56;15.37;;;7.30;;
5458;SDS011;2752;49.992;8.422;2022-11-15T06:18:23;16.33;;;7.17;;
5458;SDS011;2752;49.992;8.422;2022-11-15T06:20:50;12.10;;;6.50;;
5458;SDS011;2752;49.992;8.422;2022-11-15T06:23:18;12.67;;;7.00;;
5458;SDS011;2752;49.992;8.422;2022-11-15T06:25:45;14.40;;;7.27;;
5458;SDS011;2752;49.992;8.422;2022-11-15T06:28:11;11.87;;;6.97;;
5458;SDS011;2752;49.992;8.422;2022-11-15T06:30:38;13.07;;;6.97;;
5458;SDS011;2752;49.992;8.422;2022-11-15T06:33:05;14.70;;;6.60;;
5458;SDS011;2752;49.992;8.422;2022-11-15T06:35:34;12.13;;;6.73;;
5458;SDS011;2752;49.992;8.422;2022-11-15T06:38:02;12.60;;;6.70;;
5458;SDS011;2752;49.992;8.422;2022-11-15T06:40:32;15.30;;;7.63;;
5458;SDS011;2752;49.992;8.422;2022-11-15T06:42:59;12.87;;;7.70;;
5458;SDS011;2752;49.992;8.422;2022-11-15T06:45:26;11.60;;;7.30;;
5458;SDS011;2752;49.992;8.422;2022-11-15T06:47:53;13.33;;;7.00;;
5458;SDS011;2752;49.992;8.422;2022-11-15T06:50:20;11.93;;;7.30;;
5458;SDS011;2752;49.992;8.422;2022-11-15T06:52:46;16.27;;;7.27;;
5458;SDS011;2752;49.992;8.422;2022-11-15T06:55:13;19.73;;;8.13;;
5458;SDS011;2752;49.992;8.422;2022-11-15T06:57:47;12.27;;;6.70;;
5458;SDS011;2752;49.992;8.422;2022-11-15T07:00:14;12.50;;;7.23;;
5458;SDS011;2752;49.992;8.422;2022-11-15T07:02:42;11.23;;;7.00;;
5458;SDS011;2752;49.992;8.422;2022-11-15T07:05:09;13.23;;;6.63;;
5458;SDS011;2752;49.992;8.422;2022-11-15T07:07:36;11.90;;;6.73;;
5458;SDS011;2752;49.992;8.422;2022-11-15T07:10:03;20.07;;;7.30;;
5458;SDS011;2752;49.992;8.422;2022-11-15T07:12:31;15.07;;;7.43;;
5458;SDS011;2752;49.992;8.422;2022-11-15T07:14:59;12.50;;;6.80;;
5458;SDS011;2752;49.992;8.422;2022-11-15T07:17:25;12.80;;;7.20;;
5458;SDS011;2752;49.992;8.422;2022-11-15T07:19:52;15.40;;;7.57;;
5458;SDS011;2752;49.992;8.422;2022-11-15T07:22:19;11.13;;;6.63;;
5458;SDS011;2752;49.992;8.422;2022-11-15T07:24:45;11.37;;;6.60;;
5458;SDS011;2752;49.992;8.422;2022-11-15T07:27:12;12.30;;;6.63;;
5458;SDS011;2752;49.992;8.422;2022-11-15T07:29:39;11.30;;;6.97;;
5458;SDS011;2752;49.992;8.422;2022-11-15T07:32:07;12.63;;;6.47;;
5458;SDS011;2752;49.992;8.422;2022-11-15T07:34:33;14.07;;;6.93;;
5458;SDS011;2752;49.992;8.422;2022-11-15T07:37:00;19.07;;;6.63;;
5458;SDS011;2752;49.992;8.422;2022-11-15T07:39:27;12.47;;;6.13;;
5458;SDS011;2752;49.992;8.422;2022-11-15T07:41:53;10.80;;;6.63;;
5458;SDS011;2752;49.992;8.422;2022-11-15T07:44:40;12.23;;;6.70;;
5458;SDS011;2752;49.992;8.422;2022-11-15T07:47:08;11.23;;;6.33;;
5458;SDS011;2752;49.992;8.422;2022-11-15T07:49:35;10.37;;;6.37;;
5458;SDS011;2752;49.992;8.422;2022-11-15T07:52:02;9.07;;;5.60;;
5458;SDS011;2752;49.992;8.422;2022-11-15T07:54:28;11.23;;;6.40;;
5458;SDS011;2752;49.992;8.422;2022-11-15T07:56:55;13.73;;;7.53;;
5458;SDS011;2752;49.992;8.422;2022-11-15T07:59:22;19.13;;;7.57;;
5458;SDS011;2752;49.992;8.422;2022-11-15T08:01:49;16.37;;;7.20;;
5458;SDS011;2752;49.992;8.422;2022-11-15T08:04:17;16.33;;;7.73;;
5458;SDS011;2752;49.992;8.422;2022-11-15T08:06:44;16.23;;;8.43;;
5458;SDS011;2752;49.992;8.422;2022-11-15T08:09:11;18.77;;;7.17;;
5458;SDS011;2752;49.992;8.422;2022-11-15T08:11:37;10.40;;;6.00;;
5458;SDS011;2752;49.992;8.422;2022-11-15T08:14:04;15.03;;;7.17;;
5458;SDS011;2752;49.992;8.422;2022-11-15T08:16:31;19.40;;;6.37;;
5458;SDS011;2752;49.992;8.422;2022-11-15T08:18:58;15.23;;;6.40;;
5458;SDS011;2752;49.992;8.422;2022-11-15T08:21:26;14.73;;;6.97;;
5458;SDS011;2752;49.992;8.422;2022-11-15T08:23:53;20.87;;;6.60;;
5458;SDS011;2752;49.992;8.422;2022-11-15T08:26:19;12.03;;;6.10;;
5458;SDS011;2752;49.992;8.422;2022-11-15T08:28:46;19.40;;;7.03;;
5458;SDS011;2752;49.992;8.422;2022-11-15T08:31:14;13.97;;;6.57;;
5458;SDS011;2752;49.992;8.422;2022-11-15T08:33:42;12.50;;;6.43;;
5458;SDS011;2752;49.992;8.422;2022-11-15T08:36:11;11.90;;;6.67;;
5458;SDS011;2752;49.992;8.422;2022-11-15T08:38:41;12.00;;;6.57;;
5458;SDS011;2752;49.992;8.422;2022-11-15T08:41:10;13.43;;;7.43;;
5458;SDS011;2752;49.992;8.422;2022-11-15T08:43:40;11.90;;;6.50;;
5458;SDS011;2752;49.992;8.422;2022-11-15T08:46:07;9.47;;;5.63;;
5458;SDS011;2752;49.992;8.422;2022-11-15T08:48:37;16.43;;;6.57;;
5458;SDS011;2752;49.992;8.422;2022-11-15T08:51:04;18.33;;;6.50;;
5458;SDS011;2752;49.992;8.422;2022-11-15T08:53:31;13.50;;;7.33;;
5458;SDS011;2752;49.992;8.422;2022-11-15T08:55:59;15.20;;;6.80;;
5458;SDS011;2752;49.992;8.422;2022-11-15T08:58:26;12.23;;;6.63;;
5458;SDS011;2752;49.992;8.422;2022-11-15T09:00:52;20.10;;;7.13;;
5458;SDS011;2752;49.992;8.422;2022-11-15T09:03:19;13.23;;;6.90;;
5458;SDS011;2752;49.992;8.422;2022-11-15T09:05:46;13.10;;;7.80;;
5458;SDS011;2752;49.992;8.422;2022-11-15T09:08:13;10.27;;;5.93;;
5458;SDS011;2752;49.992;8.422;2022-11-15T09:10:39;14.80;;;7.40;;
5458;SDS011;2752;49.992;8.422;2022-11-15T09:13:07;12.13;;;6.00;;
5458;SDS011;2752;49.992;8.422;2022-11-15T09:15:34;12.87;;;6.83;;
5458;SDS011;2752;49.992;8.422;2022-11-15T09:18:01;11.23;;;6.20;;
5458;SDS011;2752;49.992;8.422;2022-11-15T09:20:27;14.40;;;6.17;;
5458;SDS011;2752;49.992;8.422;2022-11-15T09:22:54;17.67;;;8.17;;
5458;SDS011;2752;49.992;8.422;2022-11-15T09:25:24;13.53;;;7.30;;
5458;SDS011;2752;49.992;8.422;2022-11-15T09:27:51;16.27;;;9.70;;
5458;SDS011;2752;49.992;8.422;2022-11-15T09:30:19;13.10;;;7.40;;
5458;SDS011;2752;49.992;8.422;2022-11-15T09:32:46;16.10;;;6.33;;
5458;SDS011;2752;49.992;8.422;2022-11-15T09:35:12;13.23;;;5.80;;
5458;SDS011;2752;49.992;8.422;2022-11-15T09:37:39;13.23;;;6.60;;
5458;SDS011;2752;49.992;8.422;2022-11-15T09:40:07;13.97;;;6.50;;
5458;SDS011;2752;49.992;8.422;2022-11-15T09:42:43;9.87;;;6.10;;
5458;SDS011;2752;49.992;8.422;2022-11-15T09:45:20;10.00;;;6.13;;
5458;SDS011;2752;49.992;8.422;2022-11-15T09:50:56;19.20;;;7.13;;
5458;SDS011;2752;49.992;8.422;2022-11-15T09:53:26;12.70;;;5.77;;
5458;SDS011;2752;49.992;8.422;2022-11-15T09:55:58;15.43;;;6.43;;
5458;SDS011;2752;49.992;8.422;2022-11-15T09:58:28;11.27;;;6.03;;
5458;SDS011;2752;49.992;8.422;2022-11-15T10:01:04;10.53;;;5.57;;
5458;SDS011;2752;49.992;8.422;2022-11-15T10:03:34;11.07;;;5.63;;
5458;SDS011;2752;49.992;8.422;2022-11-15T10:06:08;11.27;;;6.33;;
5458;SDS011;2752;49.992;8.422;2022-11-15T10:08:45;12.97;;;6.57;;
5458;SDS011;2752;49.992;8.422;2022-11-15T10:11:17;10.80;;;6.33;;
5458;SDS011;2752;49.992;8.422;2022-11-15T10:13:48;9.77;;;5.53;;
5458;SDS011;2752;49.992;8.422;2022-11-15T10:19:19;13.73;;;5.73;;
5458;SDS011;2752;49.992;8.422;2022-11-15T10:21:55;11.53;;;5.80;;
5458;SDS011;2752;49.992;8.422;2022-11-15T10:24:31;11.17;;;6.40;;
5458;SDS011;2752;49.992;8.422;2022-11-15T10:27:08;12.93;;;6.37;;
5458;SDS011;2752;49.992;8.422;2022-11-15T10:29:40;15.43;;;8.50;;
5458;SDS011;2752;49.992;8.422;2022-11-15T10:32:09;13.83;;;6.67;;
5458;SDS011;2752;49.992;8.422;2022-11-15T10:34:38;15.97;;;7.00;;
5458;SDS011;2752;49.992;8.422;2022-11-15T10:37:05;14.50;;;5.93;;
5458;SDS011;2752;49.992;8.422;2022-11-15T10:39:32;14.63;;;8.03;;
5458;SDS011;2752;49.992;8.422;2022-11-15T10:42:02;15.50;;;7.20;;
5458;SDS011;2752;49.992;8.422;2022-11-15T10:44:42;13.50;;;6.53;;
5458;SDS011;2752;49.992;8.422;2022-11-15T10:47:23;16.97;;;7.50;;
5458;SDS011;2752;49.992;8.422;2022-11-15T10:49:54;13.13;;;7.20;;
5458;SDS011;2752;49.992;8.422;2022-11-15T10:52:23;15.43;;;7.13;;
5458;SDS011;2752;49.992;8.422;2022-11-15T10:54:50;14.70;;;7.87;;
5458;SDS011;2752;49.992;8.422;2022-11-15T10:57:20;15.90;;;7.43;;
5458;SDS011;2752;49.992;8.422;2022-11-15T10:59:49;14.83;;;7.20;;
5458;SDS011;2752;49.992;8.422;2022-11-15T11:05:06;17.43;;;7.10;;
5458;SDS011;2752;49.992;8.422;2022-11-15T11:07:55;19.50;;;8.23;;
5458;SDS011;2752;49.992;8.422;2022-11-15T11:10:23;12.10;;;6.80;;
5458;SDS011;2752;49.992;8.422;2022-11-15T11:12:50;16.30;;;7.10;;
5458;SDS011;2752;49.992;8.422;2022-11-15T11:15:17;14.90;;;8.37;;
5458;SDS011;2752;49.992;8.422;2022-11-15T11:17:49;15.77;;;8.37;;
5458;SDS011;2752;49.992;8.422;2022-11-15T11:20:25;19.13;;;6.17;;
5458;SDS011;2752;49.992;8.422;2022-11-15T11:23:01;19.10;;;6.83;;
5458;SDS011;2752;49.992;8.422;2022-11-15T11:25:40;12.63;;;6.43;;
5458;SDS011;2752;49.992;8.422;2022-11-15T11:28:17;14.30;;;6.80;;
5458;SDS011;2752;49.992;8.422;2022-11-15T11:30:59;12.17;;;7.30;;
5458;SDS011;2752;49.992;8.422;2022-11-15T11:33:34;18.13;;;7.13;;
5458;SDS011;2752;49.992;8.422;2022-11-15T11:36:14;13.27;;;6.17;;
5458;SDS011;2752;49.992;8.422;2022-11-15T11:38:50;12.30;;;6.70;;
5458;SDS011;2752;49.992;8.422;2022-11-15T11:41:30;13.17;;;7.17;;
5458;SDS011;2752;49.992;8.422;2022-11-15T11:44:14;14.40;;;7.13;;
5458;SDS011;2752;49.992;8.422;2022-11-15T11:46:48;21.43;;;6.30;;
5458;SDS011;2752;49.992;8.422;2022-11-15T11:49:19;14.83;;;5.90;;
5458;SDS011;2752;49.992;8.422;2022-11-15T11:51:51;18.83;;;6.50;;
5458;SDS011;2752;49.992;8.422;2022-11-15T11:54:22;11.07;;;5.67;;
5458;SDS011;2752;49.992;8.422;2022-11-15T11:56:55;12.17;;;6.17;;
5458;SDS011;2752;49.992;8.422;2022-11-15T11:59:33;10.77;;;6.83;;
5458;SDS011;2752;49.992;8.422;2022-11-15T12:02:11;16.83;;;5.90;;
5458;SDS011;2752;49.992;8.422;2022-11-15T12:04:43;11.40;;;6.30;;
5458;SDS011;2752;49.992;8.422;2022-11-15T12:07:15;13.60;;;6.90;;
5458;SDS011;2752;49.992;8.422;2022-11-15T12:09:46;13.20;;;6.77;;
5458;SDS011;2752;49.992;8.422;2022-11-15T12:12:21;19.50;;;6.17;;
5458;SDS011;2752;49.992;8.422;2022-11-15T12:14:53;11.27;;;5.40;;
5458;SDS011;2752;49.992;8.422;2022-11-15T12:17:23;15.60;;;6.50;;
5458;SDS011;2752;49.992;8.422;2022-11-15T12:19:51;11.60;;;5.93;;
5458;SDS011;2752;49.992;8.422;2022-11-15T12:22:23;12.87;;;6.80;;
5458;SDS011;2752;49.992;8.422;2022-11-15T12:25:00;15.63;;;6.63;;
5458;SDS011;2752;49.992;8.422;2022-11-15T12:27:32;10.20;;;5.80;;
5458;SDS011;2752;49.992;8.422;2022-11-15T12:30:03;9.63;;;5.10;;
5458;SDS011;2752;49.992;8.422;2022-11-15T12:32:35;13.00;;;6.47;;
5458;SDS011;2752;49.992;8.422;2022-11-15T12:35:06;8.30;;;5.87;;
5458;SDS011;2752;49.992;8.422;2022-11-15T12:37:51;12.63;;;6.50;;
5458;SDS011;2752;49.992;8.422;2022-11-15T12:40:24;10.90;;;6.03;;
5458;SDS011;2752;49.992;8.422;2022-11-15T12:46:10;11.47;;;6.97;;
5458;SDS011;2752;49.992;8.422;2022-11-15T12:48:47;13.53;;;7.10;;
5458;SDS011;2752;49.992;8.422;2022-11-15T12:51:16;20.63;;;5.80;;
5458;SDS011;2752;49.992;8.422;2022-11-15T12:53:44;13.03;;;5.37;;
5458;SDS011;2752;49.992;8.422;2022-11-15T12:56:21;12.33;;;5.57;;
5458;SDS011;2752;49.992;8.422;2022-11-15T12:58:49;11.63;;;5.93;;
5458;SDS011;2752;49.992;8.422;2022-11-15T13:04:24;11.83;;;6.43;;
5458;SDS011;2752;49.992;8.422;2022-11-15T13:06:53;10.83;;;6.20;;
5458;SDS011;2752;49.992;8.422;2022-11-15T13:20:53;12.50;;;6.00;;
5458;SDS011;2752;49.992;8.422;2022-11-15T13:23:20;9.47;;;5.10;;
5458;SDS011;2752;49.992;8.422;2022-11-15T13:25:54;7.20;;;5.17;;
5458;SDS011;2752;49.992;8.422;2022-11-15T13:28:29;10.43;;;5.83;;
5458;SDS011;2752;49.992;8.422;2022-11-15T13:30:58;14.43;;;5.20;;
5458;SDS011;2752;49.992;8.422;2022-11-15T13:33:28;15.20;;;5.20;;
5458;SDS011;2752;49.992;8.422;2022-11-15T13:35:58;10.77;;;6.57;;
5458;SDS011;2752;49.992;8.422;2022-11-15T13:38:27;9.43;;;5.70;;
5458;SDS011;2752;49.992;8.422;2022-11-15T13:40:57;16.80;;;5.30;;
5458;SDS011;2752;49.992;8.422;2022-11-15T13:43:29;8.80;;;5.20;;
5458;SDS011;2752;49.992;8.422;2022-11-15T13:48:51;12.27;;;5.30;;
5458;SDS011;2752;49.992;8.422;2022-11-15T13:51:20;10.50;;;5.30;;
5458;SDS011;2752;49.992;8.422;2022-11-15T13:53:52;13.10;;;5.30;;
5458;SDS011;2752;49.992;8.422;2022-11-15T13:56:23;8.17;;;4.80;;
5458;SDS011;2752;49.992;8.422;2022-11-15T13:58:53;10.67;;;5.70;;
5458;SDS011;2752;49.992;8.422;2022-11-15T14:01:20;15.27;;;5.87;;
5458;SDS011;2752;49.992;8.422;2022-11-15T14:03:57;10.57;;;5.70;;
5458;SDS011;2752;49.992;8.422;2022-11-15T14:06:27;9.60;;;4.53;;
5458;SDS011;2752;49.992;8.422;2022-11-15T14:08:59;12.07;;;5.47;;
5458;SDS011;2752;49.992;8.422;2022-11-15T14:11:30;10.13;;;4.90;;
5458;SDS011;2752;49.992;8.422;2022-11-15T14:16:49;10.70;;;4.93;;
5458;SDS011;2752;49.992;8.422;2022-11-15T14:19:36;11.03;;;5.70;;
5458;SDS011;2752;49.992;8.422;2022-11-15T14:22:08;10.30;;;4.43;;
5458;SDS011;2752;49.992;8.422;2022-11-15T14:24:37;8.73;;;4.33;;
5458;SDS011;2752;49.992;8.422;2022-11-15T14:27:22;10.13;;;4.40;;
5458;SDS011;2752;49.992;8.422;2022-11-15T14:29:51;13.60;;;3.90;;
5458;SDS011;2752;49.992;8.422;2022-11-15T14:32:18;9.10;;;4.00;;
5458;SDS011;2752;49.992;8.422;2022-11-15T14:34:47;9.33;;;3.27;;
5458;SDS011;2752;49.992;8.422;2022-11-15T14:37:18;8.40;;;3.53;;
5458;SDS011;2752;49.992;8.422;2022-11-15T14:39:47;8.43;;;3.77;;
5458;SDS011;2752;49.992;8.422;2022-11-15T14:42:15;12.00;;;3.57;;
5458;SDS011;2752;49.992;8.422;2022-11-15T14:44:43;8.67;;;4.33;;
5458;SDS011;2752;49.992;8.422;2022-11-15T14:47:10;5.10;;;2.90;;
5458;SDS011;2752;49.992;8.422;2022-11-15T14:49:37;9.00;;;3.07;;
5458;SDS011;2752;49.992;8.422;2022-11-15T14:52:07;10.60;;;2.70;;
5458;SDS011;2752;49.992;8.422;2022-11-15T14:54:42;10.70;;;2.80;;
5458;SDS011;2752;49.992;8.422;2022-11-15T14:57:09;4.03;;;2.60;;
5458;SDS011;2752;49.992;8.422;2022-11-15T14:59:36;5.40;;;2.50;;
5458;SDS011;2752;49.992;8.422;2022-11-15T15:02:07;9.43;;;3.03;;
5458;SDS011;2752;49.992;8.422;2022-11-15T15:04:39;12.23;;;3.00;;
5458;SDS011;2752;49.992;8.422;2022-11-15T15:07:06;4.50;;;2.90;;
5458;SDS011;2752;49.992;8.422;2022-11-15T15:09:33;8.77;;;3.10;;
5458;SDS011;2752;49.992;8.422;2022-11-15T15:11:59;5.77;;;2.90;;
5458;SDS011;2752;49.992;8.422;2022-11-15T15:14:26;9.90;;;4.20;;
5458;SDS011;2752;49.992;8.422;2022-11-15T15:16:53;3.20;;;2.40;;
5458;SDS011;2752;49.992;8.422;2022-11-15T15:19:21;2.60;;;2.00;;
5458;SDS011;2752;49.992;8.422;2022-11-15T15:21:47;6.53;;;2.70;;
5458;SDS011;2752;49.992;8.422;2022-11-15T15:24:14;4.77;;;2.50;;
5458;SDS011;2752;49.992;8.422;2022-11-15T15:26:41;11.40;;;3.13;;
5458;SDS011;2752;49.992;8.422;2022-11-15T15:29:08;5.87;;;2.43;;
5458;SDS011;2752;49.992;8.422;2022-11-15T15:31:35;4.77;;;2.83;;
5458;SDS011;2752;49.992;8.422;2022-11-15T15:34:02;5.03;;;2.20;;
5458;SDS011;2752;49.992;8.422;2022-11-15T15:36:30;4.70;;;2.97;;
5458;SDS011;2752;49.992;8.422;2022-11-15T15:38:56;6.70;;;3.00;;
5458;SDS011;2752;49.992;8.422;2022-11-15T15:41:23;5.87;;;3.20;;
5458;SDS011;2752;49.992;8.422;2022-11-15T15:43:50;9.90;;;3.67;;
5458;SDS011;2752;49.992;8.422;2022-11-15T15:46:17;6.70;;;3.03;;
5458;SDS011;2752;49.992;8.422;2022-11-15T15:48:45;9.30;;;3.57;;
5458;SDS011;2752;49.992;8.422;2022-11-15T15:51:12;8.40;;;3.60;;